createdAt,value
2023-03-21T00:03:07.857Z,101417.09
2023-03-21T00:08:11.162Z,101425.06
2023-03-21T00:13:16.035Z,101410.16
2023-03-21T00:18:21.312Z,101431.19
2023-03-21T00:23:25.581Z,101405.97
2023-03-21T00:28:29.071Z,101412.97
2023-03-21T00:33:32.673Z,101425.25
2023-03-21T00:38:36.482Z,101409.66
2023-03-21T00:43:40.544Z,101423.72
2023-03-21T00:48:43.624Z,101408.91
2023-03-21T00:53:47.105Z,101422.19
2023-03-21T00:58:51.458Z,101418.84
2023-03-21T01:04:03.393Z,101403.31
2023-03-21T01:09:08.755Z,101422.53
2023-03-21T01:14:22.466Z,101428.81
2023-03-21T01:19:44.685Z,101414.06
2023-03-21T01:24:58.610Z,101429.84
2023-03-21T01:30:11.262Z,101415.00
2023-03-21T01:35:20.744Z,101413.41
2023-03-21T01:40:26.498Z,101415.97
2023-03-21T01:46:22.922Z,101439.56
2023-03-21T01:52:06.591Z,101440.44
2023-03-21T01:57:42.455Z,101433.53
2023-03-21T02:02:52.790Z,101439.59
2023-03-21T02:08:16.720Z,101433.53
2023-03-21T02:13:20.463Z,101437.03
2023-03-21T02:18:29.997Z,101436.97
2023-03-21T02:24:05.573Z,101430.84
2023-03-21T02:29:46.928Z,101429.97
2023-03-21T02:34:56.114Z,101428.25
2023-03-21T02:40:18.201Z,101423.06
2023-03-21T02:45:44.455Z,101420.50
2023-03-21T02:50:53.539Z,101425.72
2023-03-21T02:55:58.086Z,101421.31
2023-03-21T03:01:01.210Z,101417.78
2023-03-21T03:06:24.530Z,101422.97
2023-03-21T03:11:30.429Z,101429.91
2023-03-21T03:17:10.424Z,101435.97
2023-03-21T03:22:26.152Z,101409.81
2023-03-21T03:27:33.716Z,101413.25
2023-03-21T03:32:47.324Z,101434.22
2023-03-21T03:37:56.900Z,101421.13
2023-03-21T03:43:09.384Z,101407.91
2023-03-21T03:48:28.065Z,101416.41
2023-03-21T03:53:41.353Z,101425.97
2023-03-21T03:58:46.138Z,101413.47
2023-03-21T04:04:03.713Z,101392.19
2023-03-21T04:09:26.705Z,101406.34
2023-03-21T04:14:44.196Z,101384.00
2023-03-21T04:19:48.498Z,101399.00
2023-03-21T04:24:51.770Z,101396.66
2023-03-21T04:29:56.404Z,101380.09
2023-03-21T04:35:13.623Z,101399.38
2023-03-21T04:40:20.277Z,101407.81
2023-03-21T04:45:24.080Z,101395.84
2023-03-21T04:50:27.199Z,101393.22
2023-03-21T04:55:32.033Z,101392.94
2023-03-21T05:00:38.801Z,101387.63
2023-03-21T05:05:41.900Z,101400.59
2023-03-21T05:10:44.969Z,101400.63
2023-03-21T05:15:48.193Z,101388.53
2023-03-21T05:20:56.153Z,101401.25
2023-03-21T05:26:00.034Z,101392.25
2023-03-21T05:31:23.410Z,101395.19
2023-03-21T05:36:34.604Z,101398.50
2023-03-21T05:41:39.231Z,101413.56
2023-03-21T05:46:43.727Z,101405.06
2023-03-21T05:51:47.259Z,101402.03
2023-03-21T05:56:50.844Z,101401.69
2023-03-21T06:02:14.226Z,101385.28
2023-03-21T06:07:17.603Z,101396.38
2023-03-21T06:12:20.810Z,101398.47
2023-03-21T06:17:44.236Z,101380.22
2023-03-21T06:22:48.363Z,101391.59
2023-03-21T06:27:51.604Z,101366.09
2023-03-21T06:32:55.883Z,101370.06
2023-03-21T06:37:59.438Z,101365.28
2023-03-21T06:43:04.666Z,101349.00
2023-03-21T06:48:09.343Z,101319.84
2023-03-21T06:53:27.713Z,101340.81
2023-03-21T06:58:52.330Z,101356.56
2023-03-21T07:04:14.084Z,101344.81
2023-03-21T07:09:18.534Z,101349.94
2023-03-21T07:14:22.016Z,101331.44
2023-03-21T07:19:25.272Z,101351.34
2023-03-21T07:24:28.376Z,101338.59
2023-03-21T07:29:31.448Z,101337.75
2023-03-21T07:34:34.511Z,101343.06
2023-03-21T07:39:39.714Z,101345.25
2023-03-21T07:44:43.180Z,101343.66
2023-03-21T07:49:46.385Z,101330.66
2023-03-21T07:54:49.827Z,101320.16
2023-03-21T07:59:52.899Z,101335.34
2023-03-21T08:04:56.595Z,101336.63
2023-03-21T08:10:00.175Z,101335.25
2023-03-21T08:15:03.319Z,101304.16
2023-03-21T08:20:09.068Z,101306.53
2023-03-21T08:25:14.260Z,101321.34
2023-03-21T08:30:22.331Z,101300.78
2023-03-21T08:35:25.627Z,101295.78
2023-03-21T08:40:28.662Z,101285.59
2023-03-21T08:45:31.886Z,101291.72
2023-03-21T08:50:34.907Z,101289.19
2023-03-21T08:55:38.259Z,101283.06
2023-03-21T09:00:41.465Z,101277.03
2023-03-21T09:05:45.909Z,101266.25
2023-03-21T09:10:49.355Z,101280.41
2023-03-21T09:15:53.537Z,101275.34
2023-03-21T09:20:56.850Z,101257.22
2023-03-21T09:26:00.023Z,101235.22
2023-03-21T09:31:04.345Z,101256.41
2023-03-21T09:36:14.627Z,101259.13
2023-03-21T09:41:40.452Z,101248.03
2023-03-21T09:46:54.294Z,101227.56
2023-03-21T09:52:01.023Z,101227.47
2023-03-21T09:57:34.569Z,101229.13
2023-03-21T10:03:01.988Z,101217.28
2023-03-21T10:08:25.458Z,101192.69
2023-03-21T10:13:33.032Z,101221.44
2023-03-21T10:18:38.086Z,101211.03
2023-03-21T10:23:41.211Z,101199.75
2023-03-21T10:28:52.856Z,101191.56
2023-03-21T10:34:02.995Z,101173.56
2023-03-21T10:39:14.248Z,101187.72
2023-03-21T10:44:21.202Z,101186.72
2023-03-21T10:49:26.789Z,101175.56
2023-03-21T10:54:31.312Z,101178.06
2023-03-21T11:00:00.374Z,101173.97
2023-03-21T11:05:09.271Z,101170.22
2023-03-21T11:10:57.152Z,101171.25
2023-03-21T11:16:09.385Z,101177.19
2023-03-21T11:21:14.589Z,101155.03
2023-03-21T11:26:24.842Z,101151.13
2023-03-21T11:31:46.195Z,101149.44
2023-03-21T11:36:51.655Z,101142.75
2023-03-21T11:41:54.770Z,101143.72
2023-03-21T11:46:58.583Z,101140.41
2023-03-21T11:52:23.618Z,101140.94
2023-03-21T11:57:49.316Z,101147.22
2023-03-21T12:03:13.822Z,101141.63
2023-03-21T12:08:38.173Z,101139.88
2023-03-21T12:13:53.219Z,101134.75
2023-03-21T12:19:20.293Z,101129.63
2023-03-21T12:24:37.881Z,101133.91
2023-03-21T12:30:11.602Z,101124.88
2023-03-21T12:35:25.932Z,101111.50
2023-03-21T12:40:54.049Z,101122.00
2023-03-21T12:46:14.896Z,101128.00
2023-03-21T12:51:23.710Z,101123.53
2023-03-21T12:56:34.682Z,101115.97
2023-03-21T13:01:40.575Z,101107.09
2023-03-21T13:06:46.881Z,101089.09
2023-03-21T13:11:52.585Z,101098.94
2023-03-21T13:17:04.506Z,101103.78
2023-03-21T13:22:09.530Z,101090.19
2023-03-21T13:27:39.799Z,101101.56
2023-03-21T13:32:44.972Z,101082.50
2023-03-21T13:38:02.519Z,101095.97
2023-03-21T13:43:05.881Z,101098.47
2023-03-21T13:48:28.760Z,101082.59
2023-03-21T13:53:45.483Z,101073.75
2023-03-21T13:58:48.485Z,101089.16
2023-03-21T14:03:59.875Z,101089.41
2023-03-21T14:09:04.335Z,101107.28
2023-03-21T14:14:07.549Z,101090.69
2023-03-21T14:19:12.278Z,101100.50
2023-03-21T14:24:17.290Z,101097.28
2023-03-21T14:29:35.614Z,101088.16
2023-03-21T14:34:39.498Z,101093.78
2023-03-21T14:39:42.803Z,101081.50
2023-03-21T14:44:55.320Z,101118.31
2023-03-21T14:50:01.398Z,101127.59
2023-03-21T14:55:14.630Z,101129.88
2023-03-21T15:00:31.642Z,101126.75
2023-03-21T15:05:39.188Z,101120.41
2023-03-21T15:11:05.951Z,101137.38
2023-03-21T15:16:12.003Z,101115.28
2023-03-21T15:21:23.953Z,101115.06
2023-03-21T15:26:27.665Z,101129.63
2023-03-21T15:31:36.742Z,101135.94
2023-03-21T15:36:46.719Z,101140.41
2023-03-21T15:42:23.868Z,101134.56
2023-03-21T15:47:40.312Z,101140.53
2023-03-21T15:52:43.761Z,101131.28
2023-03-21T15:57:47.784Z,101121.97
2023-03-21T16:02:58.576Z,101154.59
2023-03-21T16:08:20.497Z,101131.09
2023-03-21T16:13:23.577Z,101143.31
2023-03-21T16:18:26.759Z,101145.81
2023-03-21T16:23:30.249Z,101155.31
2023-03-21T16:28:34.540Z,101158.50
2023-03-21T16:33:37.568Z,101145.03
2023-03-21T16:38:40.701Z,101167.38
2023-03-21T16:43:44.347Z,101167.53
2023-03-21T16:48:51.225Z,101164.31
2023-03-21T16:53:54.541Z,101164.44
2023-03-21T16:58:58.289Z,101155.16
2023-03-21T17:04:01.389Z,101163.19
2023-03-21T17:09:05.034Z,101143.47
2023-03-21T17:14:10.211Z,101134.91
2023-03-21T17:19:18.463Z,101140.50
2023-03-21T17:24:21.808Z,101162.00
2023-03-21T17:29:24.880Z,101145.59
2023-03-21T17:34:27.890Z,101142.38
2023-03-21T17:39:32.528Z,101137.25
2023-03-21T17:44:35.816Z,101163.84
2023-03-21T17:49:38.890Z,101145.03
2023-03-21T17:54:41.925Z,101148.81
2023-03-21T17:59:45.623Z,101163.31
2023-03-21T18:04:48.695Z,101150.63
2023-03-21T18:09:51.780Z,101154.94
2023-03-21T18:14:54.864Z,101163.47
2023-03-21T18:19:59.898Z,101162.78
2023-03-21T18:25:03.749Z,101153.28
2023-03-21T18:30:36.106Z,101180.25
2023-03-21T18:35:34.129Z,101175.47
2023-03-21T18:40:37.518Z,101161.78
2023-03-21T18:45:41.761Z,101143.84
2023-03-21T18:50:44.880Z,101181.09
2023-03-21T18:55:50.116Z,101157.88
2023-03-21T19:00:56.863Z,101154.34
2023-03-21T19:06:01.069Z,101168.28
2023-03-21T19:11:06.588Z,101131.25
2023-03-21T19:16:11.497Z,101145.09
2023-03-21T19:21:14.772Z,101151.06
2023-03-21T19:26:17.869Z,101141.03
2023-03-21T19:31:22.234Z,101157.72
2023-03-21T19:36:26.568Z,101165.03
2023-03-21T19:41:29.730Z,101134.50
2023-03-21T19:46:33.081Z,101153.53
2023-03-21T19:51:36.575Z,101141.38
2023-03-21T19:56:47.024Z,101136.94
2023-03-21T20:01:56.380Z,101135.78
2023-03-21T20:07:01.690Z,101147.16
2023-03-21T20:12:06.029Z,101147.66
2023-03-21T20:17:09.136Z,101143.13
2023-03-21T20:22:24.859Z,101130.81
2023-03-21T20:27:32.443Z,101130.13
2023-03-21T20:32:39.314Z,101147.63
2023-03-21T20:37:46.529Z,101147.06
2023-03-21T20:42:50.418Z,101139.50
2023-03-21T20:47:53.667Z,101132.63
2023-03-21T20:53:06.985Z,101132.53
2023-03-21T20:58:36.712Z,101135.19
2023-03-21T21:03:40.469Z,101141.81
2023-03-21T21:08:44.157Z,101127.22
2023-03-21T21:13:47.281Z,101146.06
2023-03-21T21:18:50.362Z,101126.63
2023-03-21T21:23:53.457Z,101130.28
2023-03-21T21:28:58.434Z,101121.75
2023-03-21T21:34:03.357Z,101140.97
2023-03-21T21:39:07.697Z,101126.25
2023-03-21T21:44:11.441Z,101118.34
2023-03-21T21:49:14.634Z,101119.63
2023-03-21T21:54:18.672Z,101147.16
2023-03-21T21:59:22.516Z,101139.97
2023-03-21T22:04:28.141Z,101127.94
2023-03-21T22:09:31.590Z,101130.09
2023-03-21T22:14:34.850Z,101137.44
2023-03-21T22:19:40.216Z,101123.81
2023-03-21T22:24:43.638Z,101128.69
2023-03-21T22:29:46.757Z,101116.78
2023-03-21T22:34:49.896Z,101131.34
2023-03-21T22:39:52.981Z,101126.81
2023-03-21T22:44:56.118Z,101127.69
2023-03-21T22:49:59.407Z,101136.72
2023-03-21T22:55:02.783Z,101141.66
2023-03-21T23:00:13.807Z,101143.28
2023-03-21T23:05:17.002Z,101124.25
2023-03-21T23:10:20.580Z,101149.28
2023-03-21T23:15:23.810Z,101093.44
2023-03-21T23:20:26.856Z,101122.66
2023-03-21T23:25:30.679Z,101116.66
2023-03-21T23:30:33.716Z,101126.75
2023-03-21T23:35:38.600Z,101103.19
2023-03-21T23:40:42.035Z,101112.91
2023-03-21T23:45:45.098Z,101126.53
2023-03-21T23:50:48.681Z,101128.28
2023-03-21T23:55:52.141Z,101109.19
